sensor_id;sensor_type;location;lat;lon;timestamp;pressure;altitude;pressure_sealevel;temperature;humidity
54512;BME280;40419;47.438;19.026;2023-04-07T00:02:07;99618.69;;;2.52;100.00
54512;BME280;40419;47.438;19.026;2023-04-07T00:04:32;99622.66;;;2.47;100.00
54512;BME280;40419;47.438;19.026;2023-04-07T00:07:00;99613.19;;;2.53;100.00
54512;BME280;40419;47.438;19.026;2023-04-07T00:09:28;99620.09;;;2.64;100.00
54512;BME280;40419;47.438;19.026;2023-04-07T00:11:56;99624.28;;;2.58;100.00
54512;BME280;40419;47.438;19.026;2023-04-07T00:14:21;99614.41;;;2.59;100.00
54512;BME280;40419;47.438;19.026;2023-04-07T00:16:47;99612.09;;;2.64;100.00
54512;BME280;40419;47.438;19.026;2023-04-07T00:19:15;99616.72;;;2.54;100.00
54512;BME280;40419;47.438;19.026;2023-04-07T00:21:43;99610.00;;;2.50;100.00
54512;BME280;40419;47.438;19.026;2023-04-07T00:24:13;99613.91;;;2.55;100.00
54512;BME280;40419;47.438;19.026;2023-04-07T00:26:39;99613.91;;;2.55;100.00
54512;BME280;40419;47.438;19.026;2023-04-07T00:29:04;99605.09;;;2.63;100.00
54512;BME280;40419;47.438;19.026;2023-04-07T00:31:32;99606.41;;;2.59;100.00
54512;BME280;40419;47.438;19.026;2023-04-07T00:33:58;99603.41;;;2.62;100.00
54512;BME280;40419;47.438;19.026;2023-04-07T00:36:26;99603.59;;;2.69;100.00
54512;BME280;40419;47.438;19.026;2023-04-07T00:38:55;99597.38;;;2.60;100.00
54512;BME280;40419;47.438;19.026;2023-04-07T00:41:20;99604.66;;;2.50;100.00
54512;BME280;40419;47.438;19.026;2023-04-07T00:43:46;99602.03;;;2.58;100.00
54512;BME280;40419;47.438;19.026;2023-04-07T00:46:14;99600.56;;;2.63;100.00
54512;BME280;40419;47.438;19.026;2023-04-07T00:48:42;99588.97;;;2.81;98.17
54512;BME280;40419;47.438;19.026;2023-04-07T00:51:13;99601.19;;;2.83;99.66
54512;BME280;40419;47.438;19.026;2023-04-07T00:53:39;99603.50;;;2.78;98.42
54512;BME280;40419;47.438;19.026;2023-04-07T00:56:09;99603.81;;;2.75;98.39
54512;BME280;40419;47.438;19.026;2023-04-07T00:58:37;99593.84;;;2.86;97.73
54512;BME280;40419;47.438;19.026;2023-04-07T01:03:48;99595.81;;;2.75;95.27
54512;BME280;40419;47.438;19.026;2023-04-07T01:06:24;99589.50;;;2.84;95.83
54512;BME280;40419;47.438;19.026;2023-04-07T01:09:00;99589.59;;;2.75;98.25
54512;BME280;40419;47.438;19.026;2023-04-07T01:11:50;99580.41;;;2.77;98.33
54512;BME280;40419;47.438;19.026;2023-04-07T01:14:22;99575.22;;;2.68;98.02
54512;BME280;40419;47.438;19.026;2023-04-07T01:17:00;99573.19;;;2.70;98.52
54512;BME280;40419;47.438;19.026;2023-04-07T01:19:35;99580.41;;;2.77;97.04
54512;BME280;40419;47.438;19.026;2023-04-07T01:22:10;99575.94;;;2.78;97.17
54512;BME280;40419;47.438;19.026;2023-04-07T01:30:09;99569.16;;;2.65;97.46
54512;BME280;40419;47.438;19.026;2023-04-07T01:32:41;99571.81;;;2.31;97.96
54512;BME280;40419;47.438;19.026;2023-04-07T01:35:11;99572.66;;;2.32;98.33
54512;BME280;40419;47.438;19.026;2023-04-07T01:37:42;99563.97;;;2.64;100.00
54512;BME280;40419;47.438;19.026;2023-04-07T01:40:13;99561.44;;;2.54;100.00
54512;BME280;40419;47.438;19.026;2023-04-07T01:42:43;99556.59;;;2.58;100.00
54512;BME280;40419;47.438;19.026;2023-04-07T01:45:13;99560.44;;;2.55;100.00
54512;BME280;40419;47.438;19.026;2023-04-07T01:47:43;99552.88;;;2.51;100.00
54512;BME280;40419;47.438;19.026;2023-04-07T01:50:10;99562.72;;;2.50;100.00
54512;BME280;40419;47.438;19.026;2023-04-07T01:52:37;99567.34;;;2.66;100.00
54512;BME280;40419;47.438;19.026;2023-04-07T01:55:12;99551.56;;;2.55;100.00
54512;BME280;40419;47.438;19.026;2023-04-07T01:57:47;99550.13;;;2.69;100.00
54512;BME280;40419;47.438;19.026;2023-04-07T02:00:19;99563.63;;;2.59;100.00
54512;BME280;40419;47.438;19.026;2023-04-07T02:02:54;99566.19;;;2.42;100.00
54512;BME280;40419;47.438;19.026;2023-04-07T02:05:31;99558.91;;;2.53;100.00
54512;BME280;40419;47.438;19.026;2023-04-07T02:08:07;99567.25;;;2.50;100.00
54512;BME280;40419;47.438;19.026;2023-04-07T02:10:36;99563.56;;;2.51;100.00
54512;BME280;40419;47.438;19.026;2023-04-07T02:13:07;99559.97;;;2.60;100.00
54512;BME280;40419;47.438;19.026;2023-04-07T02:15:39;99557.44;;;2.58;100.00
54512;BME280;40419;47.438;19.026;2023-04-07T02:18:11;99552.59;;;2.54;100.00
54512;BME280;40419;47.438;19.026;2023-04-07T02:20:43;99551.31;;;2.66;100.00
54512;BME280;40419;47.438;19.026;2023-04-07T02:23:11;99559.66;;;2.63;100.00
54512;BME280;40419;47.438;19.026;2023-04-07T02:25:40;99560.63;;;2.62;100.00
54512;BME280;40419;47.438;19.026;2023-04-07T02:28:08;99564.09;;;2.54;100.00
54512;BME280;40419;47.438;19.026;2023-04-07T02:30:36;99564.09;;;2.54;100.00
54512;BME280;40419;47.438;19.026;2023-04-07T02:33:03;99556.28;;;2.61;100.00
54512;BME280;40419;47.438;19.026;2023-04-07T02:35:31;99558.69;;;2.46;100.00
54512;BME280;40419;47.438;19.026;2023-04-07T02:38:00;99558.75;;;2.54;100.00
54512;BME280;40419;47.438;19.026;2023-04-07T02:40:28;99556.66;;;2.66;100.00
54512;BME280;40419;47.438;19.026;2023-04-07T02:42:56;99556.25;;;2.53;100.00
54512;BME280;40419;47.438;19.026;2023-04-07T02:45:24;99555.19;;;2.45;100.00
54512;BME280;40419;47.438;19.026;2023-04-07T02:47:54;99562.91;;;2.48;100.00
54512;BME280;40419;47.438;19.026;2023-04-07T02:50:22;99555.47;;;2.34;100.00
54512;BME280;40419;47.438;19.026;2023-04-07T02:52:50;99552.56;;;2.27;100.00
54512;BME280;40419;47.438;19.026;2023-04-07T02:55:18;99564.78;;;2.30;100.00
54512;BME280;40419;47.438;19.026;2023-04-07T02:57:44;99559.91;;;2.25;100.00
54512;BME280;40419;47.438;19.026;2023-04-07T03:00:24;99556.78;;;2.30;100.00
54512;BME280;40419;47.438;19.026;2023-04-07T03:03:01;99555.31;;;2.36;100.00
54512;BME280;40419;47.438;19.026;2023-04-07T03:05:32;99550.44;;;2.31;100.00
54512;BME280;40419;47.438;19.026;2023-04-07T03:07:59;99549.09;;;2.35;100.00
54512;BME280;40419;47.438;19.026;2023-04-07T03:10:25;99552.53;;;2.45;100.00
54512;BME280;40419;47.438;19.026;2023-04-07T03:12:50;99554.94;;;2.30;100.00
54512;BME280;40419;47.438;19.026;2023-04-07T03:15:18;99556.84;;;2.20;100.00
54512;BME280;40419;47.438;19.026;2023-04-07T03:17:49;99555.78;;;2.31;100.00
54512;BME280;40419;47.438;19.026;2023-04-07T03:20:21;99556.38;;;2.25;100.00
54512;BME280;40419;47.438;19.026;2023-04-07T03:22:46;99551.63;;;2.37;100.00
54512;BME280;40419;47.438;19.026;2023-04-07T03:25:20;99549.34;;;2.42;100.00
54512;BME280;40419;47.438;19.026;2023-04-07T03:27:52;99556.78;;;2.30;100.00
54512;BME280;40419;47.438;19.026;2023-04-07T03:30:22;99552.09;;;2.32;100.00
54512;BME280;40419;47.438;19.026;2023-04-07T03:32:52;99548.31;;;2.43;100.00
54512;BME280;40419;47.438;19.026;2023-04-07T03:35:20;99549.06;;;2.27;100.00
54512;BME280;40419;47.438;19.026;2023-04-07T03:37:45;99541.47;;;2.40;100.00
54512;BME280;40419;47.438;19.026;2023-04-07T03:40:15;99551.75;;;2.27;100.00
54512;BME280;40419;47.438;19.026;2023-04-07T03:42:44;99558.09;;;2.08;100.00
54512;BME280;40419;47.438;19.026;2023-04-07T03:45:20;99558.84;;;2.18;100.00
54512;BME280;40419;47.438;19.026;2023-04-07T03:47:47;99549.00;;;2.19;100.00
54512;BME280;40419;47.438;19.026;2023-04-07T03:50:14;99546.41;;;2.27;100.00
54512;BME280;40419;47.438;19.026;2023-04-07T03:52:53;99549.16;;;2.17;100.00
54512;BME280;40419;47.438;19.026;2023-04-07T03:55:23;99546.91;;;2.30;100.00
54512;BME280;40419;47.438;19.026;2023-04-07T03:57:52;99547.03;;;2.21;100.00
54512;BME280;40419;47.438;19.026;2023-04-07T04:00:18;99547.53;;;2.24;100.00
54512;BME280;40419;47.438;19.026;2023-04-07T04:03:00;99554.34;;;2.19;100.00
54512;BME280;40419;47.438;19.026;2023-04-07T04:05:31;99563.25;;;2.27;100.00
54512;BME280;40419;47.438;19.026;2023-04-07T04:08:04;99562.13;;;2.30;100.00
54512;BME280;40419;47.438;19.026;2023-04-07T04:10:34;99571.28;;;2.27;100.00
54512;BME280;40419;47.438;19.026;2023-04-07T04:13:00;99568.28;;;2.30;100.00
54512;BME280;40419;47.438;19.026;2023-04-07T04:15:30;99564.31;;;2.35;100.00
54512;BME280;40419;47.438;19.026;2023-04-07T04:17:57;99571.81;;;2.31;100.00
54512;BME280;40419;47.438;19.026;2023-04-07T04:20:25;99567.03;;;2.43;100.00
54512;BME280;40419;47.438;19.026;2023-04-07T04:22:51;99568.28;;;2.30;100.00
54512;BME280;40419;47.438;19.026;2023-04-07T04:25:17;99572.66;;;2.32;100.00
54512;BME280;40419;47.438;19.026;2023-04-07T04:27:49;99568.09;;;2.24;100.00
54512;BME280;40419;47.438;19.026;2023-04-07T04:30:25;99579.84;;;2.31;100.00
54512;BME280;40419;47.438;19.026;2023-04-07T04:32:57;99573.84;;;2.37;100.00
54512;BME280;40419;47.438;19.026;2023-04-07T04:35:36;99582.53;;;2.39;100.00
54512;BME280;40419;47.438;19.026;2023-04-07T04:38:06;99581.09;;;2.45;100.00
54512;BME280;40419;47.438;19.026;2023-04-07T04:40:34;99574.94;;;2.53;100.00
54512;BME280;40419;47.438;19.026;2023-04-07T04:43:00;99565.94;;;2.54;100.00
54512;BME280;40419;47.438;19.026;2023-04-07T04:45:27;99575.63;;;2.55;100.00
54512;BME280;40419;47.438;19.026;2023-04-07T04:47:52;99577.00;;;2.59;100.00
54512;BME280;40419;47.438;19.026;2023-04-07T04:50:22;99584.44;;;2.47;100.00
54512;BME280;40419;47.438;19.026;2023-04-07T04:52:56;99591.16;;;2.51;100.00
54512;BME280;40419;47.438;19.026;2023-04-07T04:55:25;99587.69;;;2.59;100.00
54512;BME280;40419;47.438;19.026;2023-04-07T04:57:55;99592.59;;;2.72;100.00
54512;BME280;40419;47.438;19.026;2023-04-07T05:00:35;99596.78;;;2.74;100.00
54512;BME280;40419;47.438;19.026;2023-04-07T05:03:06;99594.84;;;2.84;100.00
54512;BME280;40419;47.438;19.026;2023-04-07T05:05:36;99598.56;;;2.92;100.00
54512;BME280;40419;47.438;19.026;2023-04-07T05:08:04;99602.34;;;2.81;100.00
54512;BME280;40419;47.438;19.026;2023-04-07T05:10:37;99591.91;;;2.70;100.00
54512;BME280;40419;47.438;19.026;2023-04-07T05:13:07;99595.81;;;2.75;100.00
54512;BME280;40419;47.438;19.026;2023-04-07T05:15:34;99602.66;;;2.78;100.00
54512;BME280;40419;47.438;19.026;2023-04-07T05:18:06;99610.41;;;2.89;100.00
54512;BME280;40419;47.438;19.026;2023-04-07T05:20:34;99605.56;;;2.93;100.00
54512;BME280;40419;47.438;19.026;2023-04-07T05:23:00;99614.44;;;2.93;100.00
54512;BME280;40419;47.438;19.026;2023-04-07T05:25:31;99613.09;;;2.97;100.00
54512;BME280;40419;47.438;19.026;2023-04-07T05:28:03;99606.75;;;2.90;100.00
54512;BME280;40419;47.438;19.026;2023-04-07T05:30:35;99602.41;;;2.97;100.00
54512;BME280;40419;47.438;19.026;2023-04-07T05:33:03;99610.31;;;3.07;100.00
54512;BME280;40419;47.438;19.026;2023-04-07T05:35:39;99612.97;;;2.99;100.00
54512;BME280;40419;47.438;19.026;2023-04-07T05:38:08;99604.50;;;3.12;100.00
54512;BME280;40419;47.438;19.026;2023-04-07T05:40:40;99611.00;;;3.09;100.00
54512;BME280;40419;47.438;19.026;2023-04-07T05:43:12;99607.66;;;3.07;100.00
54512;BME280;40419;47.438;19.026;2023-04-07T05:45:42;99615.25;;;3.28;100.00
54512;BME280;40419;47.438;19.026;2023-04-07T05:48:12;99614.09;;;3.31;100.00
54512;BME280;40419;47.438;19.026;2023-04-07T05:50:45;99623.44;;;3.27;100.00
54512;BME280;40419;47.438;19.026;2023-04-07T05:53:18;99613.47;;;3.37;100.00
54512;BME280;40419;47.438;19.026;2023-04-07T05:55:45;99616.16;;;3.45;100.00
54512;BME280;40419;47.438;19.026;2023-04-07T05:58:18;99620.84;;;3.51;100.00
54512;BME280;40419;47.438;19.026;2023-04-07T06:00:49;99619.19;;;3.50;100.00
54512;BME280;40419;47.438;19.026;2023-04-07T06:03:16;99625.72;;;3.56;100.00
54512;BME280;40419;47.438;19.026;2023-04-07T06:06:18;99625.81;;;3.38;100.00
54512;BME280;40419;47.438;19.026;2023-04-07T06:08:49;99614.16;;;3.47;100.00
54512;BME280;40419;47.438;19.026;2023-04-07T06:11:18;99624.38;;;3.60;100.00
54512;BME280;40419;47.438;19.026;2023-04-07T06:13:43;99618.38;;;3.66;100.00
54512;BME280;40419;47.438;19.026;2023-04-07T06:16:14;99609.31;;;3.59;100.00
54512;BME280;40419;47.438;19.026;2023-04-07T06:18:40;99622.84;;;3.49;99.61
54512;BME280;40419;47.438;19.026;2023-04-07T06:21:10;99620.03;;;3.59;99.59
54512;BME280;40419;47.438;19.026;2023-04-07T06:23:38;99626.41;;;3.58;99.65
54512;BME280;40419;47.438;19.026;2023-04-07T06:26:09;99625.22;;;3.61;99.16
54512;BME280;40419;47.438;19.026;2023-04-07T06:28:36;99621.88;;;3.59;98.60
54512;BME280;40419;47.438;19.026;2023-04-07T06:31:07;99615.88;;;3.65;100.00
54512;BME280;40419;47.438;19.026;2023-04-07T06:33:35;99614.88;;;3.74;99.80
54512;BME280;40419;47.438;19.026;2023-04-07T06:36:04;99631.47;;;3.78;98.92
54512;BME280;40419;47.438;19.026;2023-04-07T06:38:31;99638.16;;;3.82;97.79
54512;BME280;40419;47.438;19.026;2023-04-07T06:41:17;99633.25;;;3.61;98.43
54512;BME280;40419;47.438;19.026;2023-04-07T06:43:48;99628.53;;;3.54;99.53
54512;BME280;40419;47.438;19.026;2023-04-07T06:46:16;99623.69;;;3.50;100.00
54512;BME280;40419;47.438;19.026;2023-04-07T06:48:42;99641.75;;;3.48;100.00
54512;BME280;40419;47.438;19.026;2023-04-07T06:51:08;99642.09;;;3.45;99.79
54512;BME280;40419;47.438;19.026;2023-04-07T06:53:35;99640.56;;;3.42;100.00
54512;BME280;40419;47.438;19.026;2023-04-07T06:56:10;99636.41;;;3.48;100.00
54512;BME280;40419;47.438;19.026;2023-04-07T06:58:42;99651.97;;;3.52;100.00
54512;BME280;40419;47.438;19.026;2023-04-07T07:01:09;99651.09;;;3.44;100.00
54512;BME280;40419;47.438;19.026;2023-04-07T07:03:35;99653.94;;;3.42;100.00
54512;BME280;40419;47.438;19.026;2023-04-07T07:06:01;99657.94;;;3.38;100.00
54512;BME280;40419;47.438;19.026;2023-04-07T07:08:30;99660.13;;;3.43;100.00
54512;BME280;40419;47.438;19.026;2023-04-07T07:10:57;99655.16;;;3.48;100.00
54512;BME280;40419;47.438;19.026;2023-04-07T07:13:25;99662.34;;;3.47;100.00
54512;BME280;40419;47.438;19.026;2023-04-07T07:15:54;99668.53;;;3.56;100.00
54512;BME280;40419;47.438;19.026;2023-04-07T07:18:23;99670.72;;;3.52;100.00
54512;BME280;40419;47.438;19.026;2023-04-07T07:20:50;99674.25;;;3.61;100.00
54512;BME280;40419;47.438;19.026;2023-04-07T07:23:15;99673.72;;;3.49;100.00
54512;BME280;40419;47.438;19.026;2023-04-07T07:25:43;99676.91;;;3.53;100.00
54512;BME280;40419;47.438;19.026;2023-04-07T07:28:12;99675.03;;;3.45;100.00
54512;BME280;40419;47.438;19.026;2023-04-07T07:30:39;99692.13;;;3.44;100.00
54512;BME280;40419;47.438;19.026;2023-04-07T07:33:07;99686.44;;;3.55;100.00
54512;BME280;40419;47.438;19.026;2023-04-07T07:35:33;99694.81;;;3.52;100.00
54512;BME280;40419;47.438;19.026;2023-04-07T07:38:05;99692.53;;;3.66;100.00
54512;BME280;40419;47.438;19.026;2023-04-07T07:40:34;99703.06;;;3.67;100.00
54512;BME280;40419;47.438;19.026;2023-04-07T07:43:00;99696.44;;;3.45;100.00
54512;BME280;40419;47.438;19.026;2023-04-07T07:45:32;99692.38;;;3.33;100.00
54512;BME280;40419;47.438;19.026;2023-04-07T07:47:58;99692.03;;;3.28;100.00
54512;BME280;40419;47.438;19.026;2023-04-07T07:50:27;99699.78;;;3.39;100.00
54512;BME280;40419;47.438;19.026;2023-04-07T07:52:56;99704.13;;;3.40;100.00
54512;BME280;40419;47.438;19.026;2023-04-07T07:55:25;99700.69;;;3.22;100.00
54512;BME280;40419;47.438;19.026;2023-04-07T07:57:52;99712.91;;;3.24;100.00
54512;BME280;40419;47.438;19.026;2023-04-07T08:00:23;99715.06;;;3.21;100.00
54512;BME280;40419;47.438;19.026;2023-04-07T08:02:54;99725.72;;;3.12;100.00
54512;BME280;40419;47.438;19.026;2023-04-07T08:05:26;99719.66;;;3.36;100.00
54512;BME280;40419;47.438;19.026;2023-04-07T08:07:59;99722.63;;;3.60;100.00
54512;BME280;40419;47.438;19.026;2023-04-07T08:10:28;99727.91;;;3.86;100.00
54512;BME280;40419;47.438;19.026;2023-04-07T08:12:59;99730.28;;;3.97;100.00
54512;BME280;40419;47.438;19.026;2023-04-07T08:15:32;99726.78;;;4.13;100.00
54512;BME280;40419;47.438;19.026;2023-04-07T08:17:58;99727.00;;;4.20;100.00
54512;BME280;40419;47.438;19.026;2023-04-07T08:20:26;99723.81;;;4.33;100.00
54512;BME280;40419;47.438;19.026;2023-04-07T08:22:52;99727.84;;;4.37;100.00
54512;BME280;40419;47.438;19.026;2023-04-07T08:25:21;99728.50;;;4.31;100.00
54512;BME280;40419;47.438;19.026;2023-04-07T08:27:47;99725.66;;;4.32;100.00
54512;BME280;40419;47.438;19.026;2023-04-07T08:30:26;99727.34;;;3.74;100.00
54512;BME280;40419;47.438;19.026;2023-04-07T08:32:53;99735.03;;;4.20;100.00
54512;BME280;40419;47.438;19.026;2023-04-07T08:35:19;99731.19;;;4.31;100.00
54512;BME280;40419;47.438;19.026;2023-04-07T08:37:45;99731.16;;;4.22;100.00
54512;BME280;40419;47.438;19.026;2023-04-07T08:40:13;99737.13;;;4.00;100.00
54512;BME280;40419;47.438;19.026;2023-04-07T08:42:41;99742.53;;;4.16;100.00
54512;BME280;40419;47.438;19.026;2023-04-07T08:45:09;99735.22;;;4.43;100.00
54512;BME280;40419;47.438;19.026;2023-04-07T08:47:39;99734.56;;;4.49;100.00
54512;BME280;40419;47.438;19.026;2023-04-07T08:50:10;99741.94;;;4.55;100.00
54512;BME280;40419;47.438;19.026;2023-04-07T08:55:11;99738.06;;;4.66;100.00
54512;BME280;40419;47.438;19.026;2023-04-07T08:57:37;99741.91;;;4.31;100.00
54512;BME280;40419;47.438;19.026;2023-04-07T09:00:06;99741.56;;;4.34;100.00
54512;BME280;40419;47.438;19.026;2023-04-07T09:02:33;99738.41;;;4.38;100.00
54512;BME280;40419;47.438;19.026;2023-04-07T09:05:06;99744.28;;;4.67;100.00
54512;BME280;40419;47.438;19.026;2023-04-07T09:07:35;99746.41;;;4.22;100.00
54512;BME280;40419;47.438;19.026;2023-04-07T09:10:03;99740.56;;;4.35;100.00
54512;BME280;40419;47.438;19.026;2023-04-07T09:12:32;99737.38;;;4.56;100.00
54512;BME280;40419;47.438;19.026;2023-04-07T09:14:59;99734.56;;;4.82;100.00
54512;BME280;40419;47.438;19.026;2023-04-07T09:17:26;99734.53;;;4.57;100.00
54512;BME280;40419;47.438;19.026;2023-04-07T09:19:55;99735.88;;;4.61;100.00
54512;BME280;40419;47.438;19.026;2023-04-07T09:22:54;99738.94;;;4.67;100.00
54512;BME280;40419;47.438;19.026;2023-04-07T09:25:27;99745.28;;;4.82;100.00
54512;BME280;40419;47.438;19.026;2023-04-07T09:27:55;99735.41;;;4.58;100.00
54512;BME280;40419;47.438;19.026;2023-04-07T09:30:21;99741.56;;;4.34;100.00
54512;BME280;40419;47.438;19.026;2023-04-07T09:32:51;99735.53;;;4.48;100.00
54512;BME280;40419;47.438;19.026;2023-04-07T09:35:17;99738.56;;;4.37;100.00
54512;BME280;40419;47.438;19.026;2023-04-07T09:38:04;99751.31;;;4.68;100.00
54512;BME280;40419;47.438;19.026;2023-04-07T09:40:30;99750.31;;;4.44;100.00
54512;BME280;40419;47.438;19.026;2023-04-07T09:43:02;99747.63;;;4.85;100.00
54512;BME280;40419;47.438;19.026;2023-04-07T09:45:33;99744.28;;;4.67;100.00
54512;BME280;40419;47.438;19.026;2023-04-07T09:48:20;99746.28;;;4.65;100.00
54512;BME280;40419;47.438;19.026;2023-04-07T09:50:47;99741.59;;;4.67;100.00
54512;BME280;40419;47.438;19.026;2023-04-07T09:53:19;99737.06;;;4.75;100.00
54512;BME280;40419;47.438;19.026;2023-04-07T09:55:48;99749.81;;;4.65;100.00
54512;BME280;40419;47.438;19.026;2023-04-07T09:58:14;99752.00;;;4.78;100.00
54512;BME280;40419;47.438;19.026;2023-04-07T10:00:41;99746.81;;;4.68;100.00
54512;BME280;40419;47.438;19.026;2023-04-07T10:03:09;99752.00;;;4.86;100.00
54512;BME280;40419;47.438;19.026;2023-04-07T10:05:35;99747.44;;;5.03;100.00
54512;BME280;40419;47.438;19.026;2023-04-07T10:08:08;99743.72;;;5.21;100.00
54512;BME280;40419;47.438;19.026;2023-04-07T10:10:41;99739.41;;;5.03;100.00
54512;BME280;40419;47.438;19.026;2023-04-07T10:13:07;99750.44;;;5.25;100.00
54512;BME280;40419;47.438;19.026;2023-04-07T10:15:39;99751.91;;;5.44;100.00
54512;BME280;40419;47.438;19.026;2023-04-07T10:18:08;99754.56;;;5.52;100.00
54512;BME280;40419;47.438;19.026;2023-04-07T10:20:38;99752.78;;;5.36;100.00
54512;BME280;40419;47.438;19.026;2023-04-07T10:23:21;99747.75;;;5.25;100.00
54512;BME280;40419;47.438;19.026;2023-04-07T10:25:51;99754.69;;;4.86;100.00
54512;BME280;40419;47.438;19.026;2023-04-07T10:28:20;99755.31;;;5.13;100.00
54512;BME280;40419;47.438;19.026;2023-04-07T10:30:47;99751.31;;;5.01;100.00
54512;BME280;40419;47.438;19.026;2023-04-07T10:33:16;99747.22;;;5.29;100.00
54512;BME280;40419;47.438;19.026;2023-04-07T10:36:05;99747.56;;;5.35;100.00
54512;BME280;40419;47.438;19.026;2023-04-07T10:38:33;99753.66;;;5.04;100.00
54512;BME280;40419;47.438;19.026;2023-04-07T10:40:59;99753.56;;;5.45;100.00
54512;BME280;40419;47.438;19.026;2023-04-07T10:43:39;99750.00;;;5.61;100.00
54512;BME280;40419;47.438;19.026;2023-04-07T10:46:08;99750.88;;;5.45;100.00
54512;BME280;40419;47.438;19.026;2023-04-07T10:48:33;99753.91;;;5.42;100.00
54512;BME280;40419;47.438;19.026;2023-04-07T10:53:31;99758.41;;;5.49;100.00
54512;BME280;40419;47.438;19.026;2023-04-07T10:56:00;99749.81;;;5.62;100.00
54512;BME280;40419;47.438;19.026;2023-04-07T10:58:33;99754.22;;;5.95;100.00
54512;BME280;40419;47.438;19.026;2023-04-07T11:03:31;99762.72;;;5.67;100.00
54512;BME280;40419;47.438;19.026;2023-04-07T11:06:13;99756.28;;;5.84;100.00
54512;BME280;40419;47.438;19.026;2023-04-07T11:08:43;99765.19;;;5.85;100.00
54512;BME280;40419;47.438;19.026;2023-04-07T11:11:19;99761.50;;;5.78;100.00
54512;BME280;40419;47.438;19.026;2023-04-07T11:13:47;99765.81;;;5.56;100.00
54512;BME280;40419;47.438;19.026;2023-04-07T11:16:17;99773.53;;;5.50;100.00
54512;BME280;40419;47.438;19.026;2023-04-07T11:18:46;99764.53;;;5.75;100.00
54512;BME280;40419;47.438;19.026;2023-04-07T11:21:19;99756.38;;;5.60;100.00
54512;BME280;40419;47.438;19.026;2023-04-07T11:23:45;99758.47;;;5.81;100.00
54512;BME280;40419;47.438;19.026;2023-04-07T11:26:13;99757.94;;;5.94;100.00
54512;BME280;40419;47.438;19.026;2023-04-07T11:28:54;99759.25;;;6.06;100.00
54512;BME280;40419;47.438;19.026;2023-04-07T11:31:28;99758.16;;;5.76;100.00
54512;BME280;40419;47.438;19.026;2023-04-07T11:34:00;99759.63;;;5.86;100.00
54512;BME280;40419;47.438;19.026;2023-04-07T11:36:40;99767.63;;;5.55;100.00
54512;BME280;40419;47.438;19.026;2023-04-07T11:39:17;99763.22;;;5.71;99.74
54512;BME280;40419;47.438;19.026;2023-04-07T11:41:46;99762.66;;;5.44;99.31
54512;BME280;40419;47.438;19.026;2023-04-07T11:44:14;99754.84;;;5.65;100.00
54512;BME280;40419;47.438;19.026;2023-04-07T11:49:20;99757.16;;;5.77;100.00
54512;BME280;40419;47.438;19.026;2023-04-07T11:51:48;99761.03;;;5.66;99.21
54512;BME280;40419;47.438;19.026;2023-04-07T11:54:21;99760.09;;;5.50;100.00
54512;BME280;40419;47.438;19.026;2023-04-07T11:56:47;99762.59;;;5.60;98.00
54512;BME280;40419;47.438;19.026;2023-04-07T11:59:24;99762.59;;;5.60;99.05
54512;BME280;40419;47.438;19.026;2023-04-07T12:01:51;99764.75;;;5.65;98.75
54512;BME280;40419;47.438;19.026;2023-04-07T12:04:17;99768.16;;;5.50;96.68
54512;BME280;40419;47.438;19.026;2023-04-07T12:06:45;99772.03;;;5.40;98.19
54512;BME280;40419;47.438;19.026;2023-04-07T12:09:31;99770.22;;;5.24;99.61
54512;BME280;40419;47.438;19.026;2023-04-07T12:11:59;99762.47;;;5.37;98.64
54512;BME280;40419;47.438;19.026;2023-04-07T12:14:25;99765.69;;;5.41;99.54
54512;BME280;40419;47.438;19.026;2023-04-07T12:16:57;99769.72;;;5.28;100.00
54512;BME280;40419;47.438;19.026;2023-04-07T12:19:28;99757.63;;;5.41;100.00
54512;BME280;40419;47.438;19.026;2023-04-07T12:21:56;99770.00;;;5.50;100.00
54512;BME280;40419;47.438;19.026;2023-04-07T12:24:25;99758.34;;;5.74;100.00
54512;BME280;40419;47.438;19.026;2023-04-07T12:26:53;99763.25;;;5.62;98.73
54512;BME280;40419;47.438;19.026;2023-04-07T12:29:27;99756.66;;;5.81;96.29
54512;BME280;40419;47.438;19.026;2023-04-07T12:31:55;99753.28;;;5.79;97.50
54512;BME280;40419;47.438;19.026;2023-04-07T12:34:24;99755.44;;;5.84;96.42
54512;BME280;40419;47.438;19.026;2023-04-07T12:36:52;99754.59;;;5.83;96.30
54512;BME280;40419;47.438;19.026;2023-04-07T12:39:23;99764.94;;;5.55;93.88
54512;BME280;40419;47.438;19.026;2023-04-07T12:41:49;99759.38;;;5.65;94.58
54512;BME280;40419;47.438;19.026;2023-04-07T12:44:17;99750.16;;;5.59;95.85
54512;BME280;40419;47.438;19.026;2023-04-07T12:46:43;99749.81;;;5.62;98.70
54512;BME280;40419;47.438;19.026;2023-04-07T12:49:08;99762.22;;;5.72;95.70
54512;BME280;40419;47.438;19.026;2023-04-07T12:51:34;99751.56;;;5.86;94.89
54512;BME280;40419;47.438;19.026;2023-04-07T12:54:02;99762.59;;;5.60;97.31
54512;BME280;40419;47.438;19.026;2023-04-07T12:56:30;99758.53;;;5.64;97.08
54512;BME280;40419;47.438;19.026;2023-04-07T12:59:00;99760.84;;;5.76;97.25
54512;BME280;40419;47.438;19.026;2023-04-07T13:01:28;99758.00;;;5.69;94.77
54512;BME280;40419;47.438;19.026;2023-04-07T13:03:57;99771.31;;;5.62;97.04
54512;BME280;40419;47.438;19.026;2023-04-07T13:06:22;99752.97;;;5.74;97.52
54512;BME280;40419;47.438;19.026;2023-04-07T13:08:48;99756.13;;;5.86;97.01
54512;BME280;40419;47.438;19.026;2023-04-07T13:11:16;99758.28;;;5.91;98.87
54512;BME280;40419;47.438;19.026;2023-04-07T13:13:48;99759.59;;;5.95;96.81
54512;BME280;40419;47.438;19.026;2023-04-07T13:16:16;99760.16;;;5.82;95.48
54512;BME280;40419;47.438;19.026;2023-04-07T13:18:41;99756.25;;;5.93;95.88
54512;BME280;40419;47.438;19.026;2023-04-07T13:21:09;99769.28;;;5.73;96.51
54512;BME280;40419;47.438;19.026;2023-04-07T13:23:34;99762.44;;;5.93;98.52
54512;BME280;40419;47.438;19.026;2023-04-07T13:26:00;99762.16;;;5.88;97.04